sensor_id;sensor_type;location;lat;lon;timestamp;P1;durP1;ratioP1;P2;durP2;ratioP2
70455;SDS011;57916;51.996;5.180;2022-11-15T00:01:09;71.15;;;23.80;;
70455;SDS011;57916;51.996;5.180;2022-11-15T00:03:59;86.60;;;24.98;;
70455;SDS011;57916;51.996;5.180;2022-11-15T00:06:44;81.90;;;25.48;;
70455;SDS011;57916;51.996;5.180;2022-11-15T00:09:29;92.55;;;26.45;;
70455;SDS011;57916;51.996;5.180;2022-11-15T00:12:15;100.53;;;26.95;;
70455;SDS011;57916;51.996;5.180;2022-11-15T00:15:01;110.03;;;28.30;;
70455;SDS011;57916;51.996;5.180;2022-11-15T00:17:49;129.00;;;31.60;;
70455;SDS011;57916;51.996;5.180;2022-11-15T00:20:35;130.32;;;29.85;;
70455;SDS011;57916;51.996;5.180;2022-11-15T00:23:21;122.53;;;27.80;;
70455;SDS011;57916;51.996;5.180;2022-11-15T00:26:06;156.27;;;31.83;;
70455;SDS011;57916;51.996;5.180;2022-11-15T00:28:55;134.73;;;28.63;;
70455;SDS011;57916;51.996;5.180;2022-11-15T00:31:40;138.43;;;28.20;;
70455;SDS011;57916;51.996;5.180;2022-11-15T00:34:26;167.10;;;31.45;;
70455;SDS011;57916;51.996;5.180;2022-11-15T00:37:11;150.23;;;32.22;;
70455;SDS011;57916;51.996;5.180;2022-11-15T00:39:57;143.73;;;29.15;;
70455;SDS011;57916;51.996;5.180;2022-11-15T00:42:42;148.40;;;32.60;;
70455;SDS011;57916;51.996;5.180;2022-11-15T00:45:28;156.93;;;31.98;;
70455;SDS011;57916;51.996;5.180;2022-11-15T00:48:13;151.07;;;33.22;;
70455;SDS011;57916;51.996;5.180;2022-11-15T00:50:58;153.77;;;31.67;;
70455;SDS011;57916;51.996;5.180;2022-11-15T00:53:44;154.48;;;32.10;;
70455;SDS011;57916;51.996;5.180;2022-11-15T00:56:29;142.35;;;30.75;;
70455;SDS011;57916;51.996;5.180;2022-11-15T00:59:14;154.35;;;33.22;;
70455;SDS011;57916;51.996;5.180;2022-11-15T01:02:00;162.52;;;33.85;;
70455;SDS011;57916;51.996;5.180;2022-11-15T01:04:45;162.80;;;33.10;;
70455;SDS011;57916;51.996;5.180;2022-11-15T01:07:31;149.40;;;31.90;;
70455;SDS011;57916;51.996;5.180;2022-11-15T01:10:17;166.98;;;33.85;;
70455;SDS011;57916;51.996;5.180;2022-11-15T01:13:02;156.30;;;33.92;;
70455;SDS011;57916;51.996;5.180;2022-11-15T01:15:48;146.55;;;32.65;;
70455;SDS011;57916;51.996;5.180;2022-11-15T01:18:33;152.97;;;33.03;;
70455;SDS011;57916;51.996;5.180;2022-11-15T01:21:18;147.55;;;33.58;;
70455;SDS011;57916;51.996;5.180;2022-11-15T01:24:04;151.85;;;33.67;;
70455;SDS011;57916;51.996;5.180;2022-11-15T01:26:49;151.07;;;32.10;;
70455;SDS011;57916;51.996;5.180;2022-11-15T01:29:35;158.53;;;34.87;;
70455;SDS011;57916;51.996;5.180;2022-11-15T01:32:20;156.60;;;33.67;;
70455;SDS011;57916;51.996;5.180;2022-11-15T01:35:06;158.85;;;34.10;;
70455;SDS011;57916;51.996;5.180;2022-11-15T01:37:51;143.82;;;32.05;;
70455;SDS011;57916;51.996;5.180;2022-11-15T01:40:37;160.93;;;34.65;;
70455;SDS011;57916;51.996;5.180;2022-11-15T01:43:23;153.20;;;35.80;;
70455;SDS011;57916;51.996;5.180;2022-11-15T01:46:31;140.77;;;33.90;;
70455;SDS011;57916;51.996;5.180;2022-11-15T01:49:22;142.18;;;33.90;;
70455;SDS011;57916;51.996;5.180;2022-11-15T01:52:10;143.07;;;32.05;;
70455;SDS011;57916;51.996;5.180;2022-11-15T01:55:02;135.98;;;33.53;;
70455;SDS011;57916;51.996;5.180;2022-11-15T01:57:50;127.45;;;32.20;;
70455;SDS011;57916;51.996;5.180;2022-11-15T02:00:38;115.43;;;30.30;;
70455;SDS011;57916;51.996;5.180;2022-11-15T02:03:25;119.05;;;32.45;;
70455;SDS011;57916;51.996;5.180;2022-11-15T02:06:18;125.03;;;33.47;;
70455;SDS011;57916;51.996;5.180;2022-11-15T02:09:04;109.53;;;30.50;;
70455;SDS011;57916;51.996;5.180;2022-11-15T02:11:50;121.75;;;32.58;;
70455;SDS011;57916;51.996;5.180;2022-11-15T02:14:39;109.60;;;30.60;;
70455;SDS011;57916;51.996;5.180;2022-11-15T02:17:38;116.40;;;31.95;;
70455;SDS011;57916;51.996;5.180;2022-11-15T02:36:25;95.25;;;30.50;;
70455;SDS011;57916;51.996;5.180;2022-11-15T02:42:31;86.53;;;30.05;;
70455;SDS011;57916;51.996;5.180;2022-11-15T02:45:40;83.10;;;29.38;;
70455;SDS011;57916;51.996;5.180;2022-11-15T02:48:34;78.95;;;28.88;;
70455;SDS011;57916;51.996;5.180;2022-11-15T02:51:20;77.43;;;29.00;;
70455;SDS011;57916;51.996;5.180;2022-11-15T02:54:07;81.65;;;29.63;;
70455;SDS011;57916;51.996;5.180;2022-11-15T02:56:59;76.95;;;29.25;;
70455;SDS011;57916;51.996;5.180;2022-11-15T03:00:02;80.82;;;30.10;;
70455;SDS011;57916;51.996;5.180;2022-11-15T03:12:43;80.93;;;29.40;;
70455;SDS011;57916;51.996;5.180;2022-11-15T03:15:44;74.43;;;28.67;;
70455;SDS011;57916;51.996;5.180;2022-11-15T03:18:45;77.03;;;28.02;;
70455;SDS011;57916;51.996;5.180;2022-11-15T03:21:36;74.18;;;27.48;;
70455;SDS011;57916;51.996;5.180;2022-11-15T03:24:24;74.75;;;28.38;;
70455;SDS011;57916;51.996;5.180;2022-11-15T03:27:12;72.68;;;27.90;;
70455;SDS011;57916;51.996;5.180;2022-11-15T03:30:02;71.07;;;28.38;;
70455;SDS011;57916;51.996;5.180;2022-11-15T03:32:51;69.18;;;28.15;;
70455;SDS011;57916;51.996;5.180;2022-11-15T03:35:40;68.15;;;27.10;;
70455;SDS011;57916;51.996;5.180;2022-11-15T03:38:29;76.85;;;28.30;;
70455;SDS011;57916;51.996;5.180;2022-11-15T03:41:21;69.05;;;27.17;;
70455;SDS011;57916;51.996;5.180;2022-11-15T03:47:32;71.53;;;27.75;;
70455;SDS011;57916;51.996;5.180;2022-11-15T03:50:21;62.42;;;26.30;;
70455;SDS011;57916;51.996;5.180;2022-11-15T03:53:08;71.30;;;26.63;;
70455;SDS011;57916;51.996;5.180;2022-11-15T03:55:54;63.35;;;25.77;;
70455;SDS011;57916;51.996;5.180;2022-11-15T03:58:40;71.22;;;25.80;;
70455;SDS011;57916;51.996;5.180;2022-11-15T04:01:25;56.80;;;25.10;;
70455;SDS011;57916;51.996;5.180;2022-11-15T04:04:11;64.43;;;25.90;;
70455;SDS011;57916;51.996;5.180;2022-11-15T04:06:56;58.47;;;25.35;;
70455;SDS011;57916;51.996;5.180;2022-11-15T04:09:42;52.78;;;23.98;;
70455;SDS011;57916;51.996;5.180;2022-11-15T04:12:46;57.50;;;24.20;;
70455;SDS011;57916;51.996;5.180;2022-11-15T04:15:32;51.17;;;23.73;;
70455;SDS011;57916;51.996;5.180;2022-11-15T04:18:18;56.10;;;23.30;;
70455;SDS011;57916;51.996;5.180;2022-11-15T04:21:03;51.63;;;23.13;;
70455;SDS011;57916;51.996;5.180;2022-11-15T04:24:07;58.45;;;24.40;;
70455;SDS011;57916;51.996;5.180;2022-11-15T04:26:58;56.80;;;24.20;;
70455;SDS011;57916;51.996;5.180;2022-11-15T04:29:44;55.03;;;22.92;;
70455;SDS011;57916;51.996;5.180;2022-11-15T04:32:29;59.08;;;24.05;;
70455;SDS011;57916;51.996;5.180;2022-11-15T04:35:14;51.95;;;23.77;;
70455;SDS011;57916;51.996;5.180;2022-11-15T04:38:01;48.78;;;22.40;;
70455;SDS011;57916;51.996;5.180;2022-11-15T04:40:47;52.67;;;23.20;;
70455;SDS011;57916;51.996;5.180;2022-11-15T04:43:33;53.78;;;23.38;;
70455;SDS011;57916;51.996;5.180;2022-11-15T04:46:18;50.30;;;21.83;;
70455;SDS011;57916;51.996;5.180;2022-11-15T04:49:04;46.75;;;22.48;;
70455;SDS011;57916;51.996;5.180;2022-11-15T04:51:49;52.05;;;22.70;;
70455;SDS011;57916;51.996;5.180;2022-11-15T04:54:35;48.55;;;21.10;;
70455;SDS011;57916;51.996;5.180;2022-11-15T04:57:20;47.75;;;21.30;;
70455;SDS011;57916;51.996;5.180;2022-11-15T05:00:07;41.75;;;20.35;;
70455;SDS011;57916;51.996;5.180;2022-11-15T05:02:55;43.47;;;20.55;;
70455;SDS011;57916;51.996;5.180;2022-11-15T05:05:59;43.55;;;20.33;;
70455;SDS011;57916;51.996;5.180;2022-11-15T05:08:45;44.42;;;19.77;;
70455;SDS011;57916;51.996;5.180;2022-11-15T05:11:31;42.45;;;20.27;;
70455;SDS011;57916;51.996;5.180;2022-11-15T05:14:16;43.10;;;20.13;;
70455;SDS011;57916;51.996;5.180;2022-11-15T05:17:02;41.15;;;19.98;;
70455;SDS011;57916;51.996;5.180;2022-11-15T05:19:47;38.60;;;19.98;;
70455;SDS011;57916;51.996;5.180;2022-11-15T05:22:32;46.72;;;21.55;;
70455;SDS011;57916;51.996;5.180;2022-11-15T05:25:18;45.03;;;21.60;;
70455;SDS011;57916;51.996;5.180;2022-11-15T05:28:04;40.75;;;20.35;;
70455;SDS011;57916;51.996;5.180;2022-11-15T05:30:49;43.22;;;20.20;;
70455;SDS011;57916;51.996;5.180;2022-11-15T05:33:35;41.88;;;20.13;;
70455;SDS011;57916;51.996;5.180;2022-11-15T05:39:16;43.08;;;20.30;;
70455;SDS011;57916;51.996;5.180;2022-11-15T05:42:04;41.70;;;20.45;;
70455;SDS011;57916;51.996;5.180;2022-11-15T05:44:54;44.50;;;21.20;;
70455;SDS011;57916;51.996;5.180;2022-11-15T05:47:39;44.33;;;21.35;;
70455;SDS011;57916;51.996;5.180;2022-11-15T05:50:25;46.78;;;21.13;;
70455;SDS011;57916;51.996;5.180;2022-11-15T05:53:11;44.20;;;21.27;;
70455;SDS011;57916;51.996;5.180;2022-11-15T05:55:59;44.15;;;21.45;;
70455;SDS011;57916;51.996;5.180;2022-11-15T05:58:44;43.20;;;21.33;;
70455;SDS011;57916;51.996;5.180;2022-11-15T06:01:30;46.30;;;20.77;;
70455;SDS011;57916;51.996;5.180;2022-11-15T06:04:15;39.78;;;20.58;;
70455;SDS011;57916;51.996;5.180;2022-11-15T06:07:01;44.80;;;20.93;;
70455;SDS011;57916;51.996;5.180;2022-11-15T06:09:46;43.45;;;20.05;;
70455;SDS011;57916;51.996;5.180;2022-11-15T06:12:32;40.97;;;20.02;;
70455;SDS011;57916;51.996;5.180;2022-11-15T06:15:17;39.80;;;20.42;;
70455;SDS011;57916;51.996;5.180;2022-11-15T06:18:03;45.60;;;20.75;;
70455;SDS011;57916;51.996;5.180;2022-11-15T06:20:48;40.33;;;20.58;;
70455;SDS011;57916;51.996;5.180;2022-11-15T06:23:34;43.85;;;20.77;;
70455;SDS011;57916;51.996;5.180;2022-11-15T06:26:20;42.90;;;20.58;;
70455;SDS011;57916;51.996;5.180;2022-11-15T06:29:05;41.25;;;19.98;;
70455;SDS011;57916;51.996;5.180;2022-11-15T06:31:51;38.03;;;19.38;;
70455;SDS011;57916;51.996;5.180;2022-11-15T06:34:37;42.13;;;19.98;;
70455;SDS011;57916;51.996;5.180;2022-11-15T06:37:23;47.63;;;20.27;;
70455;SDS011;57916;51.996;5.180;2022-11-15T06:40:08;44.08;;;19.08;;
70455;SDS011;57916;51.996;5.180;2022-11-15T06:42:58;37.53;;;19.70;;
70455;SDS011;57916;51.996;5.180;2022-11-15T06:45:44;40.85;;;19.10;;
70455;SDS011;57916;51.996;5.180;2022-11-15T06:48:29;41.35;;;18.50;;
70455;SDS011;57916;51.996;5.180;2022-11-15T06:51:15;38.40;;;18.88;;
70455;SDS011;57916;51.996;5.180;2022-11-15T06:54:01;37.03;;;18.17;;
70455;SDS011;57916;51.996;5.180;2022-11-15T06:56:46;37.65;;;19.10;;
70455;SDS011;57916;51.996;5.180;2022-11-15T06:59:32;41.13;;;18.92;;
70455;SDS011;57916;51.996;5.180;2022-11-15T07:02:24;34.80;;;17.73;;
70455;SDS011;57916;51.996;5.180;2022-11-15T07:05:10;39.83;;;17.50;;
70455;SDS011;57916;51.996;5.180;2022-11-15T07:07:56;38.05;;;18.05;;
70455;SDS011;57916;51.996;5.180;2022-11-15T07:10:42;33.20;;;17.37;;
70455;SDS011;57916;51.996;5.180;2022-11-15T07:13:28;38.63;;;16.67;;
70455;SDS011;57916;51.996;5.180;2022-11-15T07:16:18;38.72;;;17.15;;
70455;SDS011;57916;51.996;5.180;2022-11-15T07:19:06;38.63;;;16.67;;
70455;SDS011;57916;51.996;5.180;2022-11-15T07:21:53;34.20;;;16.48;;
70455;SDS011;57916;51.996;5.180;2022-11-15T07:24:39;35.63;;;15.77;;
70455;SDS011;57916;51.996;5.180;2022-11-15T07:27:24;33.30;;;15.90;;
70455;SDS011;57916;51.996;5.180;2022-11-15T07:30:10;31.02;;;15.00;;
70455;SDS011;57916;51.996;5.180;2022-11-15T07:32:59;33.33;;;15.27;;
70455;SDS011;57916;51.996;5.180;2022-11-15T07:35:45;38.63;;;15.85;;
70455;SDS011;57916;51.996;5.180;2022-11-15T07:38:34;31.00;;;15.10;;
70455;SDS011;57916;51.996;5.180;2022-11-15T07:41:26;33.67;;;14.93;;
70455;SDS011;57916;51.996;5.180;2022-11-15T07:44:12;31.13;;;13.88;;
70455;SDS011;57916;51.996;5.180;2022-11-15T07:46:57;27.30;;;14.25;;
70455;SDS011;57916;51.996;5.180;2022-11-15T07:49:43;26.73;;;13.93;;
70455;SDS011;57916;51.996;5.180;2022-11-15T07:52:28;26.02;;;13.82;;
70455;SDS011;57916;51.996;5.180;2022-11-15T07:55:13;31.20;;;14.52;;
70455;SDS011;57916;51.996;5.180;2022-11-15T07:58:06;31.90;;;13.65;;
70455;SDS011;57916;51.996;5.180;2022-11-15T08:00:53;30.08;;;14.00;;
70455;SDS011;57916;51.996;5.180;2022-11-15T08:03:38;26.13;;;13.20;;
70455;SDS011;57916;51.996;5.180;2022-11-15T08:06:24;32.53;;;12.85;;
70455;SDS011;57916;51.996;5.180;2022-11-15T08:09:09;27.23;;;12.88;;
70455;SDS011;57916;51.996;5.180;2022-11-15T08:11:55;27.40;;;13.02;;
70455;SDS011;57916;51.996;5.180;2022-11-15T08:14:40;26.27;;;12.82;;
70455;SDS011;57916;51.996;5.180;2022-11-15T08:17:26;28.45;;;12.80;;
70455;SDS011;57916;51.996;5.180;2022-11-15T08:20:11;26.08;;;13.00;;
70455;SDS011;57916;51.996;5.180;2022-11-15T08:22:57;27.08;;;11.50;;
70455;SDS011;57916;51.996;5.180;2022-11-15T08:25:43;22.60;;;11.93;;
70455;SDS011;57916;51.996;5.180;2022-11-15T08:28:29;24.27;;;11.68;;
70455;SDS011;57916;51.996;5.180;2022-11-15T08:31:17;23.67;;;11.60;;
70455;SDS011;57916;51.996;5.180;2022-11-15T08:34:03;19.50;;;10.32;;
70455;SDS011;57916;51.996;5.180;2022-11-15T08:36:50;20.80;;;11.10;;
70455;SDS011;57916;51.996;5.180;2022-11-15T08:39:36;21.77;;;10.60;;
70455;SDS011;57916;51.996;5.180;2022-11-15T08:42:22;18.13;;;9.65;;
70455;SDS011;57916;51.996;5.180;2022-11-15T08:45:08;16.13;;;9.60;;
70455;SDS011;57916;51.996;5.180;2022-11-15T08:47:54;22.77;;;9.45;;
70455;SDS011;57916;51.996;5.180;2022-11-15T08:50:39;17.05;;;8.63;;
70455;SDS011;57916;51.996;5.180;2022-11-15T08:53:25;18.20;;;9.10;;
70455;SDS011;57916;51.996;5.180;2022-11-15T08:56:11;20.48;;;10.13;;
70455;SDS011;57916;51.996;5.180;2022-11-15T08:58:57;20.13;;;11.02;;
70455;SDS011;57916;51.996;5.180;2022-11-15T09:01:43;19.65;;;10.65;;
70455;SDS011;57916;51.996;5.180;2022-11-15T09:04:29;18.30;;;9.50;;
70455;SDS011;57916;51.996;5.180;2022-11-15T09:07:14;14.15;;;9.02;;
70455;SDS011;57916;51.996;5.180;2022-11-15T09:10:00;16.90;;;9.02;;
70455;SDS011;57916;51.996;5.180;2022-11-15T09:12:45;14.90;;;8.90;;
70455;SDS011;57916;51.996;5.180;2022-11-15T09:15:33;18.75;;;9.25;;
70455;SDS011;57916;51.996;5.180;2022-11-15T09:18:19;18.30;;;9.05;;
70455;SDS011;57916;51.996;5.180;2022-11-15T09:21:07;16.35;;;8.52;;
70455;SDS011;57916;51.996;5.180;2022-11-15T09:23:53;13.27;;;7.88;;
70455;SDS011;57916;51.996;5.180;2022-11-15T09:26:39;11.30;;;6.40;;
70455;SDS011;57916;51.996;5.180;2022-11-15T09:29:25;10.93;;;6.50;;
70455;SDS011;57916;51.996;5.180;2022-11-15T09:32:10;9.95;;;6.20;;
70455;SDS011;57916;51.996;5.180;2022-11-15T09:34:56;11.90;;;6.60;;
70455;SDS011;57916;51.996;5.180;2022-11-15T09:37:41;9.32;;;5.90;;
70455;SDS011;57916;51.996;5.180;2022-11-15T09:40:27;16.75;;;7.20;;
70455;SDS011;57916;51.996;5.180;2022-11-15T09:46:35;11.37;;;5.80;;
70455;SDS011;57916;51.996;5.180;2022-11-15T09:50:00;8.23;;;5.07;;
70455;SDS011;57916;51.996;5.180;2022-11-15T09:52:35;7.82;;;5.80;;
70455;SDS011;57916;51.996;5.180;2022-11-15T09:55:05;6.20;;;4.93;;
70455;SDS011;57916;51.996;5.180;2022-11-15T09:57:38;9.80;;;5.53;;
70455;SDS011;57916;51.996;5.180;2022-11-15T10:00:18;7.28;;;5.00;;
70455;SDS011;57916;51.996;5.180;2022-11-15T10:03:10;9.35;;;5.40;;
70455;SDS011;57916;51.996;5.180;2022-11-15T10:05:39;9.23;;;5.47;;
70455;SDS011;57916;51.996;5.180;2022-11-15T10:11:14;7.83;;;5.50;;
70455;SDS011;57916;51.996;5.180;2022-11-15T10:14:15;9.98;;;5.45;;
70455;SDS011;57916;51.996;5.180;2022-11-15T10:25:16;8.43;;;5.17;;
70455;SDS011;57916;51.996;5.180;2022-11-15T10:30:51;10.30;;;4.93;;
70455;SDS011;57916;51.996;5.180;2022-11-15T10:33:31;8.40;;;4.75;;
70455;SDS011;57916;51.996;5.180;2022-11-15T10:39:03;5.53;;;3.80;;
70455;SDS011;57916;51.996;5.180;2022-11-15T10:44:08;6.10;;;3.45;;
70455;SDS011;57916;51.996;5.180;2022-11-15T10:46:43;6.75;;;2.83;;
70455;SDS011;57916;51.996;5.180;2022-11-15T10:49:33;7.90;;;2.90;;
70455;SDS011;57916;51.996;5.180;2022-11-15T10:52:19;4.68;;;2.55;;
70455;SDS011;57916;51.996;5.180;2022-11-15T10:54:49;4.80;;;2.35;;
70455;SDS011;57916;51.996;5.180;2022-11-15T10:57:16;4.90;;;2.22;;
70455;SDS011;57916;51.996;5.180;2022-11-15T10:59:46;4.65;;;2.20;;
70455;SDS011;57916;51.996;5.180;2022-11-15T11:05:31;5.22;;;2.08;;
70455;SDS011;57916;51.996;5.180;2022-11-15T11:10:51;7.82;;;2.15;;
70455;SDS011;57916;51.996;5.180;2022-11-15T11:13:36;4.40;;;1.80;;
70455;SDS011;57916;51.996;5.180;2022-11-15T11:31:18;7.45;;;1.80;;
70455;SDS011;57916;51.996;5.180;2022-11-15T11:36:51;14.73;;;3.03;;
70455;SDS011;57916;51.996;5.180;2022-11-15T11:40:00;5.07;;;1.98;;
70455;SDS011;57916;51.996;5.180;2022-11-15T11:45:21;4.50;;;1.80;;
70455;SDS011;57916;51.996;5.180;2022-11-15T11:47:52;40.60;;;4.53;;
70455;SDS011;57916;51.996;5.180;2022-11-15T11:50:30;5.13;;;1.50;;
70455;SDS011;57916;51.996;5.180;2022-11-15T11:55:43;7.43;;;1.33;;
70455;SDS011;57916;51.996;5.180;2022-11-15T12:00:51;5.45;;;1.23;;
70455;SDS011;57916;51.996;5.180;2022-11-15T12:03:35;3.10;;;1.30;;
70455;SDS011;57916;51.996;5.180;2022-11-15T12:08:44;2.38;;;0.90;;
70455;SDS011;57916;51.996;5.180;2022-11-15T12:13:42;2.60;;;1.03;;
70455;SDS011;57916;51.996;5.180;2022-11-15T12:16:21;6.30;;;1.30;;
70455;SDS011;57916;51.996;5.180;2022-11-15T12:18:54;4.40;;;1.52;;
70455;SDS011;57916;51.996;5.180;2022-11-15T12:24:13;2.97;;;1.10;;
70455;SDS011;57916;51.996;5.180;2022-11-15T12:27:33;5.53;;;1.30;;
70455;SDS011;57916;51.996;5.180;2022-11-15T12:29:44;5.25;;;1.10;;
70455;SDS011;57916;51.996;5.180;2022-11-15T12:32:29;3.08;;;0.98;;
70455;SDS011;57916;51.996;5.180;2022-11-15T12:35:02;4.70;;;1.25;;
70455;SDS011;57916;51.996;5.180;2022-11-15T12:37:53;1.73;;;0.80;;
70455;SDS011;57916;51.996;5.180;2022-11-15T12:40:32;4.50;;;1.20;;
70455;SDS011;57916;51.996;5.180;2022-11-15T12:45:32;7.05;;;1.00;;
70455;SDS011;57916;51.996;5.180;2022-11-15T13:01:10;4.22;;;1.02;;
70455;SDS011;57916;51.996;5.180;2022-11-15T13:06:44;2.83;;;0.90;;
70455;SDS011;57916;51.996;5.180;2022-11-15T13:15:00;9.88;;;3.47;;
70455;SDS011;57916;51.996;5.180;2022-11-15T13:17:51;6.72;;;3.15;;
70455;SDS011;57916;51.996;5.180;2022-11-15T13:20:23;4.35;;;1.45;;
70455;SDS011;57916;51.996;5.180;2022-11-15T13:31:29;6.82;;;1.27;;
70455;SDS011;57916;51.996;5.180;2022-11-15T13:34:49;3.65;;;1.50;;
70455;SDS011;57916;51.996;5.180;2022-11-15T13:39:46;10.48;;;3.90;;
70455;SDS011;57916;51.996;5.180;2022-11-15T13:42:15;5.00;;;2.00;;
70455;SDS011;57916;51.996;5.180;2022-11-15T13:44:57;5.10;;;1.38;;
70455;SDS011;57916;51.996;5.180;2022-11-15T13:47:26;5.00;;;1.40;;
70455;SDS011;57916;51.996;5.180;2022-11-15T13:49:58;4.93;;;1.40;;
70455;SDS011;57916;51.996;5.180;2022-11-15T13:52:34;3.35;;;1.40;;
70455;SDS011;57916;51.996;5.180;2022-11-15T13:55:10;5.82;;;1.55;;
70455;SDS011;57916;51.996;5.180;2022-11-15T13:57:50;3.88;;;1.40;;
70455;SDS011;57916;51.996;5.180;2022-11-15T14:05:42;3.90;;;1.67;;
70455;SDS011;57916;51.996;5.180;2022-11-15T14:10:48;4.43;;;2.05;;
70455;SDS011;57916;51.996;5.180;2022-11-15T14:14:02;7.07;;;1.90;;
70455;SDS011;57916;51.996;5.180;2022-11-15T14:16:38;3.58;;;1.67;;
70455;SDS011;57916;51.996;5.180;2022-11-15T14:19:05;3.20;;;1.60;;
70455;SDS011;57916;51.996;5.180;2022-11-15T14:21:36;4.35;;;1.70;;
70455;SDS011;57916;51.996;5.180;2022-11-15T14:26:42;10.18;;;4.72;;
70455;SDS011;57916;51.996;5.180;2022-11-15T14:29:28;5.65;;;3.05;;
70455;SDS011;57916;51.996;5.180;2022-11-15T14:32:12;6.25;;;3.70;;
70455;SDS011;57916;51.996;5.180;2022-11-15T14:34:46;5.05;;;2.55;;
70455;SDS011;57916;51.996;5.180;2022-11-15T14:37:19;9.10;;;4.93;;
70455;SDS011;57916;51.996;5.180;2022-11-15T14:39:54;11.65;;;5.82;;
70455;SDS011;57916;51.996;5.180;2022-11-15T14:42:22;5.57;;;2.58;;
70455;SDS011;57916;51.996;5.180;2022-11-15T14:44:49;8.80;;;5.55;;
70455;SDS011;57916;51.996;5.180;2022-11-15T14:47:17;7.28;;;1.60;;
70455;SDS011;57916;51.996;5.180;2022-11-15T14:49:44;3.08;;;1.65;;
70455;SDS011;57916;51.996;5.180;2022-11-15T14:52:22;9.63;;;1.65;;
70455;SDS011;57916;51.996;5.180;2022-11-15T14:54:59;4.38;;;1.30;;
70455;SDS011;57916;51.996;5.180;2022-11-15T14:57:29;4.47;;;1.15;;
70455;SDS011;57916;51.996;5.180;2022-11-15T14:59:57;4.10;;;1.50;;
70455;SDS011;57916;51.996;5.180;2022-11-15T15:02:37;5.80;;;1.30;;
70455;SDS011;57916;51.996;5.180;2022-11-15T15:07:48;5.60;;;1.20;;
70455;SDS011;57916;51.996;5.180;2022-11-15T15:10:15;3.38;;;1.05;;
70455;SDS011;57916;51.996;5.180;2022-11-15T15:13:03;4.05;;;1.05;;
70455;SDS011;57916;51.996;5.180;2022-11-15T15:15:32;3.50;;;1.30;;
70455;SDS011;57916;51.996;5.180;2022-11-15T15:18:01;2.90;;;1.20;;
70455;SDS011;57916;51.996;5.180;2022-11-15T15:20:28;4.38;;;1.15;;
70455;SDS011;57916;51.996;5.180;2022-11-15T15:22:55;6.50;;;1.38;;
70455;SDS011;57916;51.996;5.180;2022-11-15T15:25:23;3.35;;;1.40;;
70455;SDS011;57916;51.996;5.180;2022-11-15T15:27:54;4.03;;;1.70;;
70455;SDS011;57916;51.996;5.180;2022-11-15T15:30:22;2.78;;;1.40;;
70455;SDS011;57916;51.996;5.180;2022-11-15T15:32:49;8.00;;;1.50;;
70455;SDS011;57916;51.996;5.180;2022-11-15T15:35:17;3.53;;;1.40;;
70455;SDS011;57916;51.996;5.180;2022-11-15T15:37:45;2.90;;;1.60;;
70455;SDS011;57916;51.996;5.180;2022-11-15T15:40:17;7.47;;;2.83;;
70455;SDS011;57916;51.996;5.180;2022-11-15T15:42:46;7.30;;;2.03;;
70455;SDS011;57916;51.996;5.180;2022-11-15T15:45:14;21.75;;;11.30;;
70455;SDS011;57916;51.996;5.180;2022-11-15T15:47:41;45.75;;;21.95;;
70455;SDS011;57916;51.996;5.180;2022-11-15T15:50:12;10.67;;;5.03;;
70455;SDS011;57916;51.996;5.180;2022-11-15T15:52:48;7.78;;;2.33;;
70455;SDS011;57916;51.996;5.180;2022-11-15T15:55:16;7.38;;;3.60;;
70455;SDS011;57916;51.996;5.180;2022-11-15T15:57:43;5.45;;;1.95;;
70455;SDS011;57916;51.996;5.180;2022-11-15T16:00:10;4.43;;;1.87;;
70455;SDS011;57916;51.996;5.180;2022-11-15T16:02:38;4.30;;;1.67;;
70455;SDS011;57916;51.996;5.180;2022-11-15T16:05:06;4.20;;;2.30;;
70455;SDS011;57916;51.996;5.180;2022-11-15T16:07:33;3.78;;;2.08;;
70455;SDS011;57916;51.996;5.180;2022-11-15T16:10:01;7.18;;;1.70;;
70455;SDS011;57916;51.996;5.180;2022-11-15T16:12:38;4.32;;;1.45;;
70455;SDS011;57916;51.996;5.180;2022-11-15T16:15:05;4.90;;;1.33;;
70455;SDS011;57916;51.996;5.180;2022-11-15T16:17:33;4.57;;;1.42;;
70455;SDS011;57916;51.996;5.180;2022-11-15T16:20:03;3.65;;;1.52;;
70455;SDS011;57916;51.996;5.180;2022-11-15T16:22:31;4.30;;;1.45;;
70455;SDS011;57916;51.996;5.180;2022-11-15T16:24:58;2.67;;;1.92;;
70455;SDS011;57916;51.996;5.180;2022-11-15T16:27:25;4.45;;;1.42;;
70455;SDS011;57916;51.996;5.180;2022-11-15T16:29:52;4.27;;;1.40;;
70455;SDS011;57916;51.996;5.180;2022-11-15T16:32:18;3.50;;;1.60;;
70455;SDS011;57916;51.996;5.180;2022-11-15T16:34:45;9.43;;;1.60;;
70455;SDS011;57916;51.996;5.180;2022-11-15T16:37:32;4.07;;;1.35;;
70455;SDS011;57916;51.996;5.180;2022-11-15T16:39:59;12.57;;;5.40;;
70455;SDS011;57916;51.996;5.180;2022-11-15T16:42:26;4.38;;;2.28;;
70455;SDS011;57916;51.996;5.180;2022-11-15T16:44:53;6.07;;;1.70;;
70455;SDS011;57916;51.996;5.180;2022-11-15T16:47:20;5.28;;;2.20;;
70455;SDS011;57916;51.996;5.180;2022-11-15T16:49:48;5.10;;;2.05;;
70455;SDS011;57916;51.996;5.180;2022-11-15T16:52:14;4.65;;;2.10;;
70455;SDS011;57916;51.996;5.180;2022-11-15T16:54:46;4.50;;;2.65;;
70455;SDS011;57916;51.996;5.180;2022-11-15T16:57:13;5.85;;;2.10;;
70455;SDS011;57916;51.996;5.180;2022-11-15T16:59:41;4.38;;;1.80;;
70455;SDS011;57916;51.996;5.180;2022-11-15T17:02:11;5.72;;;1.80;;
70455;SDS011;57916;51.996;5.180;2022-11-15T17:04:39;4.40;;;1.60;;
70455;SDS011;57916;51.996;5.180;2022-11-15T17:07:07;4.70;;;1.70;;
70455;SDS011;57916;51.996;5.180;2022-11-15T17:09:34;3.72;;;1.65;;
70455;SDS011;57916;51.996;5.180;2022-11-15T17:12:01;6.22;;;1.77;;
70455;SDS011;57916;51.996;5.180;2022-11-15T17:14:28;3.78;;;1.90;;
70455;SDS011;57916;51.996;5.180;2022-11-15T17:16:54;3.85;;;1.65;;
70455;SDS011;57916;51.996;5.180;2022-11-15T17:19:21;6.40;;;2.10;;
70455;SDS011;57916;51.996;5.180;2022-11-15T17:21:48;4.30;;;1.95;;
70455;SDS011;57916;51.996;5.180;2022-11-15T17:24:15;6.70;;;1.75;;
70455;SDS011;57916;51.996;5.180;2022-11-15T17:26:42;5.72;;;2.30;;
70455;SDS011;57916;51.996;5.180;2022-11-15T17:29:09;3.90;;;2.30;;
70455;SDS011;57916;51.996;5.180;2022-11-15T17:31:36;7.97;;;2.20;;
70455;SDS011;57916;51.996;5.180;2022-11-15T17:34:04;8.10;;;2.28;;
70455;SDS011;57916;51.996;5.180;2022-11-15T17:36:32;4.13;;;2.27;;
70455;SDS011;57916;51.996;5.180;2022-11-15T17:39:00;3.30;;;2.47;;
70455;SDS011;57916;51.996;5.180;2022-11-15T17:41:27;3.63;;;2.60;;
70455;SDS011;57916;51.996;5.180;2022-11-15T17:43:55;4.57;;;2.45;;
70455;SDS011;57916;51.996;5.180;2022-11-15T17:46:23;6.03;;;2.70;;
70455;SDS011;57916;51.996;5.180;2022-11-15T17:48:50;3.78;;;2.13;;
70455;SDS011;57916;51.996;5.180;2022-11-15T17:51:17;4.38;;;2.50;;
70455;SDS011;57916;51.996;5.180;2022-11-15T17:53:45;4.38;;;2.65;;
70455;SDS011;57916;51.996;5.180;2022-11-15T17:56:14;4.32;;;2.60;;
70455;SDS011;57916;51.996;5.180;2022-11-15T17:58:46;5.30;;;2.60;;
70455;SDS011;57916;51.996;5.180;2022-11-15T18:01:22;5.85;;;3.08;;
70455;SDS011;57916;51.996;5.180;2022-11-15T18:03:53;14.73;;;6.22;;
70455;SDS011;57916;51.996;5.180;2022-11-15T18:06:22;16.52;;;6.15;;
70455;SDS011;57916;51.996;5.180;2022-11-15T18:08:50;36.38;;;13.95;;
70455;SDS011;57916;51.996;5.180;2022-11-15T18:11:22;24.23;;;10.73;;
70455;SDS011;57916;51.996;5.180;2022-11-15T18:13:55;12.32;;;6.03;;
70455;SDS011;57916;51.996;5.180;2022-11-15T18:16:25;6.40;;;3.40;;
70455;SDS011;57916;51.996;5.180;2022-11-15T18:18:54;4.47;;;4.07;;